sensor_id;sensor_type;location;lat;lon;timestamp;P1;durP1;ratioP1;P2;durP2;ratioP2
7336;SDS011;54510;42.016;23.098;2023-12-04T00:01:46;6.45;;;3.70;;
7336;SDS011;54510;42.016;23.098;2023-12-04T00:04:12;6.68;;;3.78;;
7336;SDS011;54510;42.016;23.098;2023-12-04T00:06:38;6.43;;;4.18;;
7336;SDS011;54510;42.016;23.098;2023-12-04T00:09:03;7.82;;;3.60;;
7336;SDS011;54510;42.016;23.098;2023-12-04T00:11:29;7.38;;;4.60;;
7336;SDS011;54510;42.016;23.098;2023-12-04T00:13:54;12.38;;;4.10;;
7336;SDS011;54510;42.016;23.098;2023-12-04T00:16:20;6.10;;;3.78;;
7336;SDS011;54510;42.016;23.098;2023-12-04T00:18:45;7.25;;;4.82;;
7336;SDS011;54510;42.016;23.098;2023-12-04T00:21:10;5.70;;;3.58;;
7336;SDS011;54510;42.016;23.098;2023-12-04T00:23:37;5.82;;;4.30;;
7336;SDS011;54510;42.016;23.098;2023-12-04T00:26:03;7.90;;;4.25;;
7336;SDS011;54510;42.016;23.098;2023-12-04T00:28:28;6.15;;;4.18;;
7336;SDS011;54510;42.016;23.098;2023-12-04T00:30:54;8.75;;;4.68;;
7336;SDS011;54510;42.016;23.098;2023-12-04T00:33:19;7.97;;;3.90;;
7336;SDS011;54510;42.016;23.098;2023-12-04T00:35:45;10.18;;;4.18;;
7336;SDS011;54510;42.016;23.098;2023-12-04T00:38:11;5.93;;;3.85;;
7336;SDS011;54510;42.016;23.098;2023-12-04T00:40:36;8.15;;;4.15;;
7336;SDS011;54510;42.016;23.098;2023-12-04T00:43:01;4.95;;;3.83;;
7336;SDS011;54510;42.016;23.098;2023-12-04T00:45:27;6.65;;;4.55;;
7336;SDS011;54510;42.016;23.098;2023-12-04T00:47:52;6.80;;;3.90;;
7336;SDS011;54510;42.016;23.098;2023-12-04T00:50:18;7.13;;;4.00;;
7336;SDS011;54510;42.016;23.098;2023-12-04T00:52:43;7.00;;;4.32;;
7336;SDS011;54510;42.016;23.098;2023-12-04T00:55:09;6.55;;;4.10;;
7336;SDS011;54510;42.016;23.098;2023-12-04T00:57:34;9.20;;;4.03;;
7336;SDS011;54510;42.016;23.098;2023-12-04T01:00:00;4.93;;;3.20;;
7336;SDS011;54510;42.016;23.098;2023-12-04T01:02:25;7.03;;;4.68;;
7336;SDS011;54510;42.016;23.098;2023-12-04T01:04:50;6.15;;;4.32;;
7336;SDS011;54510;42.016;23.098;2023-12-04T01:07:16;6.30;;;4.80;;
7336;SDS011;54510;42.016;23.098;2023-12-04T01:09:41;6.90;;;4.15;;
7336;SDS011;54510;42.016;23.098;2023-12-04T01:12:06;7.60;;;3.63;;
7336;SDS011;54510;42.016;23.098;2023-12-04T01:14:32;6.13;;;3.78;;
7336;SDS011;54510;42.016;23.098;2023-12-04T01:16:58;7.22;;;4.05;;
7336;SDS011;54510;42.016;23.098;2023-12-04T01:19:23;6.40;;;3.95;;
7336;SDS011;54510;42.016;23.098;2023-12-04T01:21:49;6.47;;;3.97;;
7336;SDS011;54510;42.016;23.098;2023-12-04T01:24:14;5.88;;;3.95;;
7336;SDS011;54510;42.016;23.098;2023-12-04T01:26:40;6.55;;;3.80;;
7336;SDS011;54510;42.016;23.098;2023-12-04T01:29:06;6.78;;;3.58;;
7336;SDS011;54510;42.016;23.098;2023-12-04T01:31:31;7.18;;;3.60;;
7336;SDS011;54510;42.016;23.098;2023-12-04T01:33:57;8.57;;;4.15;;
7336;SDS011;54510;42.016;23.098;2023-12-04T01:36:22;7.72;;;4.35;;
7336;SDS011;54510;42.016;23.098;2023-12-04T01:38:48;7.93;;;4.28;;
7336;SDS011;54510;42.016;23.098;2023-12-04T01:41:13;5.60;;;4.00;;
7336;SDS011;54510;42.016;23.098;2023-12-04T01:43:39;6.05;;;4.22;;
7336;SDS011;54510;42.016;23.098;2023-12-04T01:46:04;6.28;;;4.22;;
7336;SDS011;54510;42.016;23.098;2023-12-04T01:48:31;7.65;;;4.53;;
7336;SDS011;54510;42.016;23.098;2023-12-04T01:50:57;5.72;;;3.70;;
7336;SDS011;54510;42.016;23.098;2023-12-04T01:53:25;6.32;;;3.55;;
7336;SDS011;54510;42.016;23.098;2023-12-04T01:55:51;7.15;;;4.35;;
7336;SDS011;54510;42.016;23.098;2023-12-04T01:58:16;7.20;;;4.43;;
7336;SDS011;54510;42.016;23.098;2023-12-04T02:00:42;6.63;;;4.10;;
7336;SDS011;54510;42.016;23.098;2023-12-04T02:03:07;6.10;;;3.88;;
7336;SDS011;54510;42.016;23.098;2023-12-04T02:05:35;6.55;;;3.53;;
7336;SDS011;54510;42.016;23.098;2023-12-04T02:08:01;6.15;;;3.10;;
7336;SDS011;54510;42.016;23.098;2023-12-04T02:10:28;8.25;;;4.57;;
7336;SDS011;54510;42.016;23.098;2023-12-04T02:12:54;6.75;;;3.63;;
7336;SDS011;54510;42.016;23.098;2023-12-04T02:15:20;6.47;;;3.60;;
7336;SDS011;54510;42.016;23.098;2023-12-04T02:17:45;6.78;;;3.45;;
7336;SDS011;54510;42.016;23.098;2023-12-04T02:20:16;6.70;;;4.18;;
7336;SDS011;54510;42.016;23.098;2023-12-04T02:22:41;6.53;;;3.85;;
7336;SDS011;54510;42.016;23.098;2023-12-04T02:25:07;9.30;;;4.93;;
7336;SDS011;54510;42.016;23.098;2023-12-04T02:27:38;14.07;;;4.78;;
7336;SDS011;54510;42.016;23.098;2023-12-04T02:30:10;16.25;;;4.90;;
7336;SDS011;54510;42.016;23.098;2023-12-04T02:32:38;9.43;;;4.57;;
7336;SDS011;54510;42.016;23.098;2023-12-04T02:35:06;11.23;;;4.93;;
7336;SDS011;54510;42.016;23.098;2023-12-04T02:37:33;11.23;;;5.15;;
7336;SDS011;54510;42.016;23.098;2023-12-04T02:39:59;12.77;;;4.90;;
7336;SDS011;54510;42.016;23.098;2023-12-04T02:42:25;17.15;;;5.78;;
7336;SDS011;54510;42.016;23.098;2023-12-04T02:44:51;12.40;;;4.75;;
7336;SDS011;54510;42.016;23.098;2023-12-04T02:47:17;11.10;;;4.40;;
7336;SDS011;54510;42.016;23.098;2023-12-04T02:49:43;8.88;;;5.18;;
7336;SDS011;54510;42.016;23.098;2023-12-04T02:52:08;10.25;;;4.85;;
7336;SDS011;54510;42.016;23.098;2023-12-04T02:54:34;9.52;;;5.32;;
7336;SDS011;54510;42.016;23.098;2023-12-04T02:56:59;8.88;;;4.93;;
7336;SDS011;54510;42.016;23.098;2023-12-04T02:59:24;9.50;;;5.22;;
7336;SDS011;54510;42.016;23.098;2023-12-04T03:01:50;10.55;;;5.80;;
7336;SDS011;54510;42.016;23.098;2023-12-04T03:04:15;7.90;;;4.38;;
7336;SDS011;54510;42.016;23.098;2023-12-04T03:06:40;11.75;;;6.10;;
7336;SDS011;54510;42.016;23.098;2023-12-04T03:09:06;12.30;;;5.93;;
7336;SDS011;54510;42.016;23.098;2023-12-04T03:11:31;12.90;;;5.22;;
7336;SDS011;54510;42.016;23.098;2023-12-04T03:13:59;12.18;;;5.60;;
7336;SDS011;54510;42.016;23.098;2023-12-04T03:16:26;12.07;;;5.85;;
7336;SDS011;54510;42.016;23.098;2023-12-04T03:18:51;8.77;;;5.25;;
7336;SDS011;54510;42.016;23.098;2023-12-04T03:21:16;11.88;;;4.82;;
7336;SDS011;54510;42.016;23.098;2023-12-04T03:23:42;10.75;;;5.28;;
7336;SDS011;54510;42.016;23.098;2023-12-04T03:26:08;18.08;;;6.03;;
7336;SDS011;54510;42.016;23.098;2023-12-04T03:28:34;11.43;;;5.13;;
7336;SDS011;54510;42.016;23.098;2023-12-04T03:30:59;12.30;;;5.38;;
7336;SDS011;54510;42.016;23.098;2023-12-04T03:33:25;13.88;;;5.55;;
7336;SDS011;54510;42.016;23.098;2023-12-04T03:35:50;10.38;;;5.43;;
7336;SDS011;54510;42.016;23.098;2023-12-04T03:38:16;10.60;;;5.07;;
7336;SDS011;54510;42.016;23.098;2023-12-04T03:40:41;15.45;;;5.35;;
7336;SDS011;54510;42.016;23.098;2023-12-04T03:43:06;15.63;;;5.90;;
7336;SDS011;54510;42.016;23.098;2023-12-04T03:45:32;10.20;;;5.40;;
7336;SDS011;54510;42.016;23.098;2023-12-04T03:47:57;16.15;;;6.65;;
7336;SDS011;54510;42.016;23.098;2023-12-04T03:50:23;11.43;;;6.10;;
7336;SDS011;54510;42.016;23.098;2023-12-04T03:52:48;12.85;;;5.03;;
7336;SDS011;54510;42.016;23.098;2023-12-04T03:55:13;13.23;;;6.20;;
7336;SDS011;54510;42.016;23.098;2023-12-04T03:57:39;9.95;;;5.63;;
7336;SDS011;54510;42.016;23.098;2023-12-04T04:00:05;7.10;;;4.35;;
7336;SDS011;54510;42.016;23.098;2023-12-04T04:02:31;9.82;;;5.78;;
7336;SDS011;54510;42.016;23.098;2023-12-04T04:04:56;12.48;;;4.95;;
7336;SDS011;54510;42.016;23.098;2023-12-04T04:07:22;13.63;;;5.40;;
7336;SDS011;54510;42.016;23.098;2023-12-04T04:09:47;11.88;;;5.60;;
7336;SDS011;54510;42.016;23.098;2023-12-04T04:12:12;12.80;;;5.25;;
7336;SDS011;54510;42.016;23.098;2023-12-04T04:14:38;12.38;;;5.13;;
7336;SDS011;54510;42.016;23.098;2023-12-04T04:17:03;10.43;;;5.32;;
7336;SDS011;54510;42.016;23.098;2023-12-04T04:19:29;16.13;;;5.25;;
7336;SDS011;54510;42.016;23.098;2023-12-04T04:21:54;10.27;;;5.95;;
7336;SDS011;54510;42.016;23.098;2023-12-04T04:24:20;10.75;;;5.28;;
7336;SDS011;54510;42.016;23.098;2023-12-04T04:26:45;8.80;;;5.57;;
7336;SDS011;54510;42.016;23.098;2023-12-04T04:29:11;13.40;;;6.65;;
7336;SDS011;54510;42.016;23.098;2023-12-04T04:31:36;12.15;;;4.95;;
7336;SDS011;54510;42.016;23.098;2023-12-04T04:34:01;10.68;;;4.97;;
7336;SDS011;54510;42.016;23.098;2023-12-04T04:36:27;10.63;;;5.72;;
7336;SDS011;54510;42.016;23.098;2023-12-04T04:38:52;9.10;;;4.97;;
7336;SDS011;54510;42.016;23.098;2023-12-04T04:41:18;8.93;;;5.28;;
7336;SDS011;54510;42.016;23.098;2023-12-04T04:43:43;7.93;;;4.88;;
7336;SDS011;54510;42.016;23.098;2023-12-04T04:46:08;10.38;;;5.97;;
7336;SDS011;54510;42.016;23.098;2023-12-04T04:48:34;8.43;;;4.72;;
7336;SDS011;54510;42.016;23.098;2023-12-04T04:51:00;7.85;;;4.82;;
7336;SDS011;54510;42.016;23.098;2023-12-04T04:53:25;13.00;;;4.93;;
7336;SDS011;54510;42.016;23.098;2023-12-04T04:55:51;9.85;;;5.28;;
7336;SDS011;54510;42.016;23.098;2023-12-04T04:58:16;9.43;;;4.25;;
7336;SDS011;54510;42.016;23.098;2023-12-04T05:00:42;8.07;;;4.50;;
7336;SDS011;54510;42.016;23.098;2023-12-04T05:03:08;11.43;;;5.57;;
7336;SDS011;54510;42.016;23.098;2023-12-04T05:05:34;7.85;;;4.82;;
7336;SDS011;54510;42.016;23.098;2023-12-04T05:07:59;7.10;;;4.95;;
7336;SDS011;54510;42.016;23.098;2023-12-04T05:10:24;13.85;;;7.45;;
7336;SDS011;54510;42.016;23.098;2023-12-04T05:12:50;14.50;;;9.73;;
7336;SDS011;54510;42.016;23.098;2023-12-04T05:15:15;12.13;;;6.53;;
7336;SDS011;54510;42.016;23.098;2023-12-04T05:17:40;9.48;;;5.10;;
7336;SDS011;54510;42.016;23.098;2023-12-04T05:20:06;21.08;;;11.82;;
7336;SDS011;54510;42.016;23.098;2023-12-04T05:22:32;12.73;;;6.18;;
7336;SDS011;54510;42.016;23.098;2023-12-04T05:24:59;8.88;;;5.25;;
7336;SDS011;54510;42.016;23.098;2023-12-04T05:27:24;11.98;;;6.00;;
7336;SDS011;54510;42.016;23.098;2023-12-04T05:29:50;11.73;;;5.88;;
7336;SDS011;54510;42.016;23.098;2023-12-04T05:32:16;11.90;;;4.88;;
7336;SDS011;54510;42.016;23.098;2023-12-04T05:34:41;11.05;;;6.22;;
7336;SDS011;54510;42.016;23.098;2023-12-04T05:37:07;16.45;;;5.55;;
7336;SDS011;54510;42.016;23.098;2023-12-04T05:39:32;10.48;;;5.47;;
7336;SDS011;54510;42.016;23.098;2023-12-04T05:41:57;12.00;;;5.65;;
7336;SDS011;54510;42.016;23.098;2023-12-04T05:44:23;12.23;;;5.28;;
7336;SDS011;54510;42.016;23.098;2023-12-04T05:46:48;12.07;;;5.57;;
7336;SDS011;54510;42.016;23.098;2023-12-04T05:49:14;16.38;;;6.20;;
7336;SDS011;54510;42.016;23.098;2023-12-04T05:51:39;9.82;;;5.50;;
7336;SDS011;54510;42.016;23.098;2023-12-04T05:54:04;11.23;;;5.53;;
7336;SDS011;54510;42.016;23.098;2023-12-04T05:56:30;11.38;;;5.25;;
7336;SDS011;54510;42.016;23.098;2023-12-04T05:58:56;11.27;;;6.13;;
7336;SDS011;54510;42.016;23.098;2023-12-04T06:01:21;13.43;;;7.70;;
7336;SDS011;54510;42.016;23.098;2023-12-04T06:03:47;14.93;;;6.57;;
7336;SDS011;54510;42.016;23.098;2023-12-04T06:06:12;15.98;;;6.28;;
7336;SDS011;54510;42.016;23.098;2023-12-04T06:08:38;11.82;;;7.10;;
7336;SDS011;54510;42.016;23.098;2023-12-04T06:11:03;15.90;;;7.38;;
7336;SDS011;54510;42.016;23.098;2023-12-04T06:13:29;16.92;;;7.63;;
7336;SDS011;54510;42.016;23.098;2023-12-04T06:15:54;16.65;;;7.43;;
7336;SDS011;54510;42.016;23.098;2023-12-04T06:18:19;12.48;;;6.65;;
7336;SDS011;54510;42.016;23.098;2023-12-04T06:20:47;12.50;;;7.50;;
7336;SDS011;54510;42.016;23.098;2023-12-04T06:23:14;13.85;;;7.90;;
7336;SDS011;54510;42.016;23.098;2023-12-04T06:25:40;13.15;;;8.25;;
7336;SDS011;54510;42.016;23.098;2023-12-04T06:28:05;22.58;;;11.15;;
7336;SDS011;54510;42.016;23.098;2023-12-04T06:30:31;11.65;;;6.32;;
7336;SDS011;54510;42.016;23.098;2023-12-04T06:32:57;12.55;;;6.47;;
7336;SDS011;54510;42.016;23.098;2023-12-04T06:35:22;10.43;;;5.57;;
7336;SDS011;54510;42.016;23.098;2023-12-04T06:37:48;14.38;;;7.43;;
7336;SDS011;54510;42.016;23.098;2023-12-04T06:40:15;15.20;;;8.18;;
7336;SDS011;54510;42.016;23.098;2023-12-04T06:42:42;27.00;;;14.45;;
7336;SDS011;54510;42.016;23.098;2023-12-04T06:45:07;27.50;;;15.50;;
7336;SDS011;54510;42.016;23.098;2023-12-04T06:47:34;23.35;;;11.25;;
7336;SDS011;54510;42.016;23.098;2023-12-04T06:49:59;15.65;;;7.82;;
7336;SDS011;54510;42.016;23.098;2023-12-04T06:52:25;13.45;;;6.97;;
7336;SDS011;54510;42.016;23.098;2023-12-04T06:54:50;25.65;;;13.20;;
7336;SDS011;54510;42.016;23.098;2023-12-04T06:57:16;23.30;;;11.48;;
7336;SDS011;54510;42.016;23.098;2023-12-04T06:59:41;82.18;;;34.45;;
7336;SDS011;54510;42.016;23.098;2023-12-04T07:02:07;29.15;;;14.93;;
7336;SDS011;54510;42.016;23.098;2023-12-04T07:04:33;25.98;;;15.82;;
7336;SDS011;54510;42.016;23.098;2023-12-04T07:06:58;12.27;;;6.50;;
7336;SDS011;54510;42.016;23.098;2023-12-04T07:09:29;12.07;;;7.88;;
7336;SDS011;54510;42.016;23.098;2023-12-04T07:11:55;11.60;;;7.43;;
7336;SDS011;54510;42.016;23.098;2023-12-04T07:14:20;13.38;;;6.88;;
7336;SDS011;54510;42.016;23.098;2023-12-04T07:16:46;12.35;;;6.65;;
7336;SDS011;54510;42.016;23.098;2023-12-04T07:19:12;11.65;;;6.93;;
7336;SDS011;54510;42.016;23.098;2023-12-04T07:21:39;20.75;;;10.35;;
7336;SDS011;54510;42.016;23.098;2023-12-04T07:24:06;14.88;;;6.60;;
7336;SDS011;54510;42.016;23.098;2023-12-04T07:26:32;16.55;;;8.73;;
7336;SDS011;54510;42.016;23.098;2023-12-04T07:29:00;10.10;;;6.55;;
7336;SDS011;54510;42.016;23.098;2023-12-04T07:31:26;13.60;;;6.85;;
7336;SDS011;54510;42.016;23.098;2023-12-04T07:33:55;9.07;;;4.88;;
7336;SDS011;54510;42.016;23.098;2023-12-04T07:36:20;11.20;;;5.63;;
7336;SDS011;54510;42.016;23.098;2023-12-04T07:38:46;13.35;;;7.22;;
7336;SDS011;54510;42.016;23.098;2023-12-04T07:41:12;9.45;;;4.90;;
7336;SDS011;54510;42.016;23.098;2023-12-04T07:43:38;7.85;;;4.85;;
7336;SDS011;54510;42.016;23.098;2023-12-04T07:46:04;10.07;;;5.18;;
7336;SDS011;54510;42.016;23.098;2023-12-04T07:48:30;9.80;;;4.95;;
7336;SDS011;54510;42.016;23.098;2023-12-04T07:50:56;13.07;;;4.60;;
7336;SDS011;54510;42.016;23.098;2023-12-04T07:53:22;6.55;;;4.47;;
7336;SDS011;54510;42.016;23.098;2023-12-04T07:55:48;11.75;;;4.80;;
7336;SDS011;54510;42.016;23.098;2023-12-04T07:58:16;9.75;;;4.40;;
7336;SDS011;54510;42.016;23.098;2023-12-04T08:00:42;9.88;;;4.90;;
7336;SDS011;54510;42.016;23.098;2023-12-04T08:03:08;7.55;;;4.43;;
7336;SDS011;54510;42.016;23.098;2023-12-04T08:05:34;12.73;;;7.50;;
7336;SDS011;54510;42.016;23.098;2023-12-04T08:07:59;15.48;;;8.68;;
7336;SDS011;54510;42.016;23.098;2023-12-04T08:10:25;10.70;;;5.20;;
7336;SDS011;54510;42.016;23.098;2023-12-04T08:12:50;9.75;;;4.60;;
7336;SDS011;54510;42.016;23.098;2023-12-04T08:15:16;10.52;;;4.72;;
7336;SDS011;54510;42.016;23.098;2023-12-04T08:17:41;10.73;;;4.57;;
7336;SDS011;54510;42.016;23.098;2023-12-04T08:20:07;19.00;;;10.07;;
7336;SDS011;54510;42.016;23.098;2023-12-04T08:22:38;14.57;;;7.57;;
7336;SDS011;54510;42.016;23.098;2023-12-04T08:25:04;16.45;;;9.18;;
7336;SDS011;54510;42.016;23.098;2023-12-04T08:27:31;16.90;;;9.10;;
7336;SDS011;54510;42.016;23.098;2023-12-04T08:29:57;11.10;;;5.57;;
7336;SDS011;54510;42.016;23.098;2023-12-04T08:32:23;13.95;;;6.72;;
7336;SDS011;54510;42.016;23.098;2023-12-04T08:34:48;13.27;;;8.77;;
7336;SDS011;54510;42.016;23.098;2023-12-04T08:37:14;9.85;;;5.30;;
7336;SDS011;54510;42.016;23.098;2023-12-04T08:39:39;14.40;;;9.43;;
7336;SDS011;54510;42.016;23.098;2023-12-04T08:42:04;18.25;;;9.13;;
7336;SDS011;54510;42.016;23.098;2023-12-04T08:44:30;20.05;;;10.02;;
7336;SDS011;54510;42.016;23.098;2023-12-04T08:46:55;11.00;;;6.78;;
7336;SDS011;54510;42.016;23.098;2023-12-04T08:49:22;12.00;;;5.88;;
7336;SDS011;54510;42.016;23.098;2023-12-04T08:51:48;10.50;;;5.78;;
7336;SDS011;54510;42.016;23.098;2023-12-04T08:54:17;15.13;;;7.78;;
7336;SDS011;54510;42.016;23.098;2023-12-04T08:56:43;15.15;;;8.07;;
7336;SDS011;54510;42.016;23.098;2023-12-04T08:59:09;29.75;;;16.60;;
7336;SDS011;54510;42.016;23.098;2023-12-04T09:01:35;20.10;;;12.65;;
7336;SDS011;54510;42.016;23.098;2023-12-04T09:04:01;34.30;;;19.98;;
7336;SDS011;54510;42.016;23.098;2023-12-04T09:06:26;18.00;;;11.90;;
7336;SDS011;54510;42.016;23.098;2023-12-04T09:08:52;9.27;;;5.05;;
7336;SDS011;54510;42.016;23.098;2023-12-04T09:11:17;16.35;;;7.38;;
7336;SDS011;54510;42.016;23.098;2023-12-04T09:13:43;12.38;;;5.38;;
7336;SDS011;54510;42.016;23.098;2023-12-04T09:16:08;8.05;;;4.88;;
7336;SDS011;54510;42.016;23.098;2023-12-04T09:18:34;5.93;;;3.78;;
7336;SDS011;54510;42.016;23.098;2023-12-04T09:20:59;6.43;;;3.28;;
7336;SDS011;54510;42.016;23.098;2023-12-04T09:23:25;7.07;;;3.08;;
7336;SDS011;54510;42.016;23.098;2023-12-04T09:25:50;6.03;;;3.58;;
7336;SDS011;54510;42.016;23.098;2023-12-04T09:28:16;8.27;;;3.55;;
7336;SDS011;54510;42.016;23.098;2023-12-04T09:30:41;5.72;;;3.67;;
7336;SDS011;54510;42.016;23.098;2023-12-04T09:33:07;9.23;;;3.65;;
7336;SDS011;54510;42.016;23.098;2023-12-04T09:35:32;6.70;;;3.42;;
7336;SDS011;54510;42.016;23.098;2023-12-04T09:37:58;6.10;;;3.42;;
7336;SDS011;54510;42.016;23.098;2023-12-04T09:40:23;8.27;;;4.10;;
7336;SDS011;54510;42.016;23.098;2023-12-04T09:42:49;12.52;;;3.33;;
7336;SDS011;54510;42.016;23.098;2023-12-04T09:45:16;5.43;;;3.03;;
7336;SDS011;54510;42.016;23.098;2023-12-04T09:47:44;5.22;;;3.47;;
7336;SDS011;54510;42.016;23.098;2023-12-04T09:50:11;6.88;;;3.65;;
7336;SDS011;54510;42.016;23.098;2023-12-04T09:52:37;7.78;;;4.63;;
7336;SDS011;54510;42.016;23.098;2023-12-04T09:55:03;5.82;;;3.80;;
7336;SDS011;54510;42.016;23.098;2023-12-04T09:57:30;5.93;;;3.65;;
7336;SDS011;54510;42.016;23.098;2023-12-04T09:59:56;7.88;;;3.65;;
7336;SDS011;54510;42.016;23.098;2023-12-04T10:02:25;5.13;;;3.15;;
7336;SDS011;54510;42.016;23.098;2023-12-04T10:04:51;9.25;;;3.63;;
7336;SDS011;54510;42.016;23.098;2023-12-04T10:07:17;4.60;;;2.90;;
7336;SDS011;54510;42.016;23.098;2023-12-04T10:09:42;6.80;;;3.88;;
7336;SDS011;54510;42.016;23.098;2023-12-04T10:12:08;6.82;;;2.80;;
7336;SDS011;54510;42.016;23.098;2023-12-04T10:14:35;6.50;;;3.33;;
7336;SDS011;54510;42.016;23.098;2023-12-04T10:17:00;3.55;;;2.38;;
7336;SDS011;54510;42.016;23.098;2023-12-04T10:19:39;5.70;;;3.20;;
7336;SDS011;54510;42.016;23.098;2023-12-04T10:22:04;9.82;;;5.38;;
7336;SDS011;54510;42.016;23.098;2023-12-04T10:24:36;5.25;;;2.90;;
7336;SDS011;54510;42.016;23.098;2023-12-04T10:27:03;4.72;;;2.88;;
7336;SDS011;54510;42.016;23.098;2023-12-04T10:32:12;5.10;;;2.65;;
7336;SDS011;54510;42.016;23.098;2023-12-04T10:34:37;5.68;;;3.25;;
7336;SDS011;54510;42.016;23.098;2023-12-04T10:37:04;7.20;;;3.58;;
7336;SDS011;54510;42.016;23.098;2023-12-04T10:39:30;6.20;;;3.55;;
7336;SDS011;54510;42.016;23.098;2023-12-04T10:41:59;15.93;;;3.47;;
7336;SDS011;54510;42.016;23.098;2023-12-04T10:44:26;6.88;;;4.05;;
7336;SDS011;54510;42.016;23.098;2023-12-04T10:46:53;6.70;;;4.07;;
7336;SDS011;54510;42.016;23.098;2023-12-04T10:49:23;9.07;;;3.50;;
7336;SDS011;54510;42.016;23.098;2023-12-04T10:51:56;5.65;;;3.50;;
7336;SDS011;54510;42.016;23.098;2023-12-04T10:54:24;15.55;;;8.48;;
7336;SDS011;54510;42.016;23.098;2023-12-04T10:56:51;22.33;;;9.60;;
7336;SDS011;54510;42.016;23.098;2023-12-04T10:59:18;6.90;;;3.97;;
7336;SDS011;54510;42.016;23.098;2023-12-04T11:01:50;6.78;;;3.83;;
7336;SDS011;54510;42.016;23.098;2023-12-04T11:04:19;4.88;;;2.92;;
7336;SDS011;54510;42.016;23.098;2023-12-04T11:06:49;11.05;;;4.75;;
7336;SDS011;54510;42.016;23.098;2023-12-04T11:09:17;8.07;;;3.25;;
7336;SDS011;54510;42.016;23.098;2023-12-04T11:11:46;7.63;;;3.67;;
7336;SDS011;54510;42.016;23.098;2023-12-04T11:14:16;4.63;;;2.63;;
7336;SDS011;54510;42.016;23.098;2023-12-04T11:16:57;7.10;;;4.15;;
7336;SDS011;54510;42.016;23.098;2023-12-04T11:19:39;21.15;;;11.30;;
7336;SDS011;54510;42.016;23.098;2023-12-04T11:22:15;4.97;;;2.90;;
7336;SDS011;54510;42.016;23.098;2023-12-04T11:24:45;12.30;;;3.65;;
7336;SDS011;54510;42.016;23.098;2023-12-04T11:27:12;5.40;;;3.92;;
7336;SDS011;54510;42.016;23.098;2023-12-04T11:29:39;7.07;;;3.67;;
7336;SDS011;54510;42.016;23.098;2023-12-04T11:32:05;16.90;;;8.10;;
7336;SDS011;54510;42.016;23.098;2023-12-04T11:34:32;13.50;;;6.90;;
7336;SDS011;54510;42.016;23.098;2023-12-04T11:36:57;18.92;;;7.68;;
7336;SDS011;54510;42.016;23.098;2023-12-04T11:39:24;20.45;;;9.68;;
7336;SDS011;54510;42.016;23.098;2023-12-04T11:41:50;10.93;;;5.88;;
7336;SDS011;54510;42.016;23.098;2023-12-04T11:44:16;6.43;;;3.47;;
7336;SDS011;54510;42.016;23.098;2023-12-04T11:49:30;4.40;;;2.38;;
7336;SDS011;54510;42.016;23.098;2023-12-04T11:51:59;4.63;;;2.20;;
7336;SDS011;54510;42.016;23.098;2023-12-04T11:54:27;2.97;;;1.92;;
7336;SDS011;54510;42.016;23.098;2023-12-04T11:57:00;4.07;;;2.17;;
7336;SDS011;54510;42.016;23.098;2023-12-04T11:59:37;5.53;;;2.28;;
7336;SDS011;54510;42.016;23.098;2023-12-04T12:02:03;4.28;;;2.15;;
7336;SDS011;54510;42.016;23.098;2023-12-04T12:04:32;5.07;;;2.75;;
7336;SDS011;54510;42.016;23.098;2023-12-04T12:06:58;5.68;;;2.60;;
7336;SDS011;54510;42.016;23.098;2023-12-04T12:09:27;3.60;;;1.98;;
7336;SDS011;54510;42.016;23.098;2023-12-04T12:11:53;5.53;;;2.42;;
7336;SDS011;54510;42.016;23.098;2023-12-04T12:14:20;7.70;;;2.20;;
7336;SDS011;54510;42.016;23.098;2023-12-04T12:16:48;5.15;;;2.00;;
7336;SDS011;54510;42.016;23.098;2023-12-04T12:19:13;2.83;;;2.30;;
7336;SDS011;54510;42.016;23.098;2023-12-04T12:21:39;5.22;;;3.00;;
7336;SDS011;54510;42.016;23.098;2023-12-04T12:24:05;3.92;;;1.90;;
7336;SDS011;54510;42.016;23.098;2023-12-04T12:26:31;3.75;;;2.45;;
7336;SDS011;54510;42.016;23.098;2023-12-04T12:28:57;3.75;;;1.95;;
7336;SDS011;54510;42.016;23.098;2023-12-04T12:31:22;6.43;;;2.42;;
7336;SDS011;54510;42.016;23.098;2023-12-04T12:33:48;3.60;;;2.08;;
7336;SDS011;54510;42.016;23.098;2023-12-04T12:36:14;6.20;;;3.05;;
7336;SDS011;54510;42.016;23.098;2023-12-04T12:38:43;6.65;;;2.50;;
7336;SDS011;54510;42.016;23.098;2023-12-04T12:41:14;3.08;;;2.28;;
7336;SDS011;54510;42.016;23.098;2023-12-04T12:43:41;4.28;;;2.53;;
7336;SDS011;54510;42.016;23.098;2023-12-04T12:46:06;4.43;;;3.08;;
7336;SDS011;54510;42.016;23.098;2023-12-04T12:48:32;4.93;;;2.55;;
7336;SDS011;54510;42.016;23.098;2023-12-04T12:50:57;5.60;;;2.55;;
7336;SDS011;54510;42.016;23.098;2023-12-04T12:53:23;5.05;;;2.45;;
7336;SDS011;54510;42.016;23.098;2023-12-04T12:55:49;6.57;;;2.75;;
7336;SDS011;54510;42.016;23.098;2023-12-04T12:58:14;4.63;;;2.35;;
7336;SDS011;54510;42.016;23.098;2023-12-04T13:00:45;6.30;;;2.53;;
7336;SDS011;54510;42.016;23.098;2023-12-04T13:03:15;6.95;;;3.15;;
7336;SDS011;54510;42.016;23.098;2023-12-04T13:05:41;8.77;;;4.13;;
7336;SDS011;54510;42.016;23.098;2023-12-04T13:08:06;7.95;;;2.92;;
7336;SDS011;54510;42.016;23.098;2023-12-04T13:10:31;8.45;;;2.63;;
7336;SDS011;54510;42.016;23.098;2023-12-04T13:12:57;5.40;;;3.35;;
7336;SDS011;54510;42.016;23.098;2023-12-04T13:15:24;8.05;;;3.97;;
7336;SDS011;54510;42.016;23.098;2023-12-04T13:17:50;5.63;;;3.50;;
7336;SDS011;54510;42.016;23.098;2023-12-04T13:20:15;7.72;;;3.30;;
7336;SDS011;54510;42.016;23.098;2023-12-04T13:22:42;5.13;;;3.05;;
7336;SDS011;54510;42.016;23.098;2023-12-04T13:25:07;4.63;;;3.05;;
7336;SDS011;54510;42.016;23.098;2023-12-04T13:27:35;4.97;;;2.85;;
7336;SDS011;54510;42.016;23.098;2023-12-04T13:30:05;4.75;;;2.60;;
7336;SDS011;54510;42.016;23.098;2023-12-04T13:32:31;6.40;;;2.60;;
7336;SDS011;54510;42.016;23.098;2023-12-04T13:34:58;5.38;;;2.80;;
7336;SDS011;54510;42.016;23.098;2023-12-04T13:37:24;3.60;;;2.10;;
7336;SDS011;54510;42.016;23.098;2023-12-04T13:39:52;6.55;;;4.13;;
7336;SDS011;54510;42.016;23.098;2023-12-04T13:42:23;7.53;;;5.15;;
7336;SDS011;54510;42.016;23.098;2023-12-04T13:45:07;5.28;;;2.60;;
7336;SDS011;54510;42.016;23.098;2023-12-04T13:47:37;5.03;;;2.35;;
7336;SDS011;54510;42.016;23.098;2023-12-04T13:50:06;4.65;;;2.35;;
7336;SDS011;54510;42.016;23.098;2023-12-04T13:52:34;11.13;;;5.30;;
7336;SDS011;54510;42.016;23.098;2023-12-04T13:55:00;9.05;;;4.60;;
7336;SDS011;54510;42.016;23.098;2023-12-04T13:57:25;7.95;;;3.85;;
7336;SDS011;54510;42.016;23.098;2023-12-04T14:00:00;11.40;;;3.30;;
7336;SDS011;54510;42.016;23.098;2023-12-04T14:02:26;19.10;;;3.47;;
7336;SDS011;54510;42.016;23.098;2023-12-04T14:04:52;14.02;;;5.25;;
7336;SDS011;54510;42.016;23.098;2023-12-04T14:07:17;14.27;;;6.63;;
7336;SDS011;54510;42.016;23.098;2023-12-04T14:09:43;14.10;;;6.03;;
7336;SDS011;54510;42.016;23.098;2023-12-04T14:12:10;12.80;;;6.18;;
7336;SDS011;54510;42.016;23.098;2023-12-04T14:14:35;9.90;;;4.82;;
7336;SDS011;54510;42.016;23.098;2023-12-04T14:17:02;9.02;;;3.83;;
7336;SDS011;54510;42.016;23.098;2023-12-04T14:19:30;7.93;;;3.25;;
7336;SDS011;54510;42.016;23.098;2023-12-04T14:21:56;6.65;;;3.53;;
7336;SDS011;54510;42.016;23.098;2023-12-04T14:24:21;11.63;;;3.20;;
7336;SDS011;54510;42.016;23.098;2023-12-04T14:26:50;9.23;;;3.95;;
7336;SDS011;54510;42.016;23.098;2023-12-04T14:29:18;12.23;;;2.85;;
7336;SDS011;54510;42.016;23.098;2023-12-04T14:31:44;7.50;;;3.28;;
7336;SDS011;54510;42.016;23.098;2023-12-04T14:34:11;10.30;;;4.00;;
7336;SDS011;54510;42.016;23.098;2023-12-04T14:36:36;14.25;;;7.05;;
7336;SDS011;54510;42.016;23.098;2023-12-04T14:39:02;13.10;;;7.20;;
7336;SDS011;54510;42.016;23.098;2023-12-04T14:41:28;14.77;;;6.90;;